Evergreen, Colorado
Current Conditions -  °F | °C
As of 10:55 PM on Saturday 22 Nov 2014 (Local Time) from KBJC Reporting Station
Clear Clear  
Wind Chill: 40°   Ceiling: Unl
Heat Index: 43°   Visibility: 10mi
Dew Point: 27°   Wind: 5mph
Humidity: 53%   Direction: 270°W
Pressure: 29.56"   Gusts: NA
Location:  39.63°N, 105.31°W
Report Text: KBJC 230555Z AUTO 27004KT 10SM CLR 06/M03 A2956 RMK AO2
Loading
Personal Weather Stations






























Interactive Weather Map New forecast layout! Learn more

10-Day Weather Forecast

Advertisements
Track Severe Weather on mobile